Fowlston, Georgia
Current Conditions -  °F | °C
As of 4:15 AM on Monday 24 Nov 2014 (Local Time) from K2J9 Reporting Station
Overcast Overcast  
Wind Chill: 66°   Ceiling: 400
Heat Index: 66°   Visibility: 5mi
Dew Point: 66°   Wind: 7mph
Humidity: 100%   Direction: 190°S
Pressure: 29.83"   Gusts: NA
Location:  30.79°N, 84.55°W
Report Text: K2J9 240815Z AUTO 19006KT 5SM OVC004 19/19 A2983 RMK AO1
Loading
Personal Weather Stations






























Interactive Weather Map New forecast layout! Learn more

10-Day Weather Forecast

Advertisements
Track Severe Weather on mobile